createdAt,value
2022-11-30T00:05:02.256Z,7.13
2022-11-30T00:12:04.049Z,7.10
2022-11-30T00:19:05.614Z,7.13
2022-11-30T00:26:08.923Z,7.05
2022-11-30T00:33:10.519Z,7.04
2022-11-30T00:40:12.639Z,6.94
2022-11-30T00:47:14.195Z,7.04
2022-11-30T00:54:15.798Z,7.03
2022-11-30T01:01:17.437Z,6.98
2022-11-30T01:08:19.064Z,6.99
2022-11-30T01:15:20.639Z,6.98
2022-11-30T01:22:22.228Z,6.99
2022-11-30T01:29:23.806Z,6.97
2022-11-30T01:36:26.177Z,6.99
2022-11-30T01:43:54.075Z,6.97
2022-11-30T01:50:55.770Z,6.90
2022-11-30T01:58:00.811Z,6.90
2022-11-30T02:05:02.386Z,6.83
2022-11-30T02:12:05.652Z,6.87
2022-11-30T02:19:25.913Z,6.85
2022-11-30T02:26:39.823Z,6.83
2022-11-30T02:33:41.468Z,6.83
2022-11-30T02:40:43.061Z,6.72
2022-11-30T02:47:55.823Z,6.69
2022-11-30T02:55:02.005Z,6.76
2022-11-30T03:02:03.564Z,6.75
2022-11-30T03:09:05.242Z,6.73
2022-11-30T03:16:08.230Z,6.70
2022-11-30T03:23:10.450Z,6.83
2022-11-30T03:30:12.510Z,6.85
2022-11-30T03:37:14.099Z,6.76
2022-11-30T03:44:15.900Z,6.74
2022-11-30T03:51:17.529Z,6.77
2022-11-30T03:58:19.109Z,6.75
2022-11-30T04:05:22.426Z,6.76
2022-11-30T04:12:24.019Z,6.64
2022-11-30T04:19:25.640Z,6.64
2022-11-30T04:26:27.184Z,6.68
2022-11-30T04:33:28.819Z,6.64
2022-11-30T04:40:30.401Z,6.68
2022-11-30T04:47:31.998Z,6.50
2022-11-30T04:54:33.578Z,6.59
2022-11-30T05:01:35.150Z,6.50
2022-11-30T05:08:36.810Z,6.47
2022-11-30T05:15:38.367Z,6.50
2022-11-30T05:22:39.940Z,6.50
2022-11-30T05:29:41.549Z,6.40
2022-11-30T05:36:43.146Z,6.48
2022-11-30T05:43:44.770Z,6.49
2022-11-30T05:50:46.316Z,6.35
2022-11-30T05:57:47.882Z,6.40
2022-11-30T06:04:49.775Z,6.41
2022-11-30T06:11:51.516Z,6.39
2022-11-30T06:18:53.417Z,6.47
2022-11-30T06:25:55.034Z,6.36
2022-11-30T06:32:56.678Z,6.41
2022-11-30T06:40:06.549Z,6.44
2022-11-30T06:47:08.911Z,6.56
2022-11-30T06:54:10.495Z,6.49
2022-11-30T07:01:13.907Z,6.51
2022-11-30T07:08:16.129Z,6.55
2022-11-30T07:15:17.936Z,6.62
2022-11-30T07:22:19.530Z,6.59
2022-11-30T07:29:21.120Z,6.52
2022-11-30T07:36:23.471Z,6.53
2022-11-30T07:43:25.028Z,6.46
2022-11-30T07:50:26.691Z,6.55
2022-11-30T07:57:28.367Z,6.43
2022-11-30T08:04:30.025Z,6.39
2022-11-30T08:11:33.192Z,6.38
2022-11-30T08:18:34.814Z,6.48
2022-11-30T08:25:36.390Z,6.38
2022-11-30T08:32:37.999Z,6.41
2022-11-30T08:39:39.623Z,6.38
2022-11-30T08:46:56.806Z,6.59
2022-11-30T08:53:58.783Z,6.62
2022-11-30T09:01:16.770Z,6.68
2022-11-30T09:08:18.330Z,6.79
2022-11-30T09:15:19.952Z,6.91
2022-11-30T09:22:21.770Z,6.89
2022-11-30T09:29:23.783Z,6.94
2022-11-30T09:36:27.223Z,7.02
2022-11-30T09:43:30.908Z,7.09
2022-11-30T09:50:34.926Z,7.22
2022-11-30T09:57:52.396Z,7.25
2022-11-30T10:04:54.014Z,7.40
2022-11-30T10:12:01.355Z,7.57
2022-11-30T10:19:08.862Z,7.61
2022-11-30T10:26:14.658Z,7.63
2022-11-30T10:33:18.455Z,7.73
2022-11-30T10:40:40.790Z,7.86
2022-11-30T10:48:04.802Z,7.93
2022-11-30T10:55:14.911Z,8.17
2022-11-30T11:02:45.760Z,7.99
2022-11-30T11:09:51.074Z,8.06
2022-11-30T11:17:18.478Z,8.22
2022-11-30T11:24:20.921Z,8.04
2022-11-30T11:31:31.718Z,8.01
2022-11-30T11:38:42.997Z,8.30
2022-11-30T11:45:50.733Z,8.44
2022-11-30T11:53:15.424Z,8.30
2022-11-30T12:00:21.564Z,8.42
2022-11-30T12:07:32.928Z,8.47
2022-11-30T12:14:35.256Z,8.48
2022-11-30T12:21:46.684Z,8.47
2022-11-30T12:29:14.556Z,8.42
2022-11-30T12:36:52.936Z,8.50
2022-11-30T12:44:00.553Z,8.50
2022-11-30T12:51:17.369Z,8.39
2022-11-30T12:58:41.543Z,8.33
2022-11-30T13:05:45.452Z,8.17
2022-11-30T13:12:49.002Z,8.22
2022-11-30T13:20:16.291Z,8.22
2022-11-30T13:27:31.138Z,7.88
2022-11-30T13:34:32.891Z,7.47
2022-11-30T13:41:35.045Z,7.41
2022-11-30T13:48:41.134Z,7.30
2022-11-30T13:55:42.617Z,7.09
2022-11-30T14:02:44.088Z,6.64
2022-11-30T14:09:56.109Z,6.49
2022-11-30T14:16:57.761Z,6.44
2022-11-30T14:24:01.849Z,6.28
2022-11-30T14:31:03.489Z,6.10
2022-11-30T14:38:05.221Z,6.29
2022-11-30T14:45:18.302Z,6.21
2022-11-30T14:52:57.625Z,6.08
2022-11-30T14:59:59.324Z,5.98
2022-11-30T15:07:02.215Z,5.68
2022-11-30T15:14:08.877Z,5.50
2022-11-30T15:21:17.273Z,5.44
2022-11-30T15:28:24.585Z,5.24
2022-11-30T15:35:34.284Z,5.26
2022-11-30T15:42:40.626Z,5.27
2022-11-30T15:49:50.972Z,5.15
2022-11-30T15:56:56.719Z,5.24
2022-11-30T16:04:03.892Z,5.29
2022-11-30T16:11:07.995Z,5.32
2022-11-30T16:18:17.328Z,5.28
2022-11-30T16:25:20.764Z,5.08
2022-11-30T16:32:22.505Z,5.19
2022-11-30T16:39:24.047Z,5.13
2022-11-30T16:46:26.973Z,5.28
2022-11-30T16:53:28.941Z,5.33
2022-11-30T17:00:30.611Z,5.27
2022-11-30T17:07:32.220Z,5.20
2022-11-30T17:14:33.850Z,5.23
2022-11-30T17:21:36.415Z,5.17
2022-11-30T17:28:38.017Z,5.21
2022-11-30T17:35:42.773Z,5.15
2022-11-30T17:42:44.357Z,5.22
2022-11-30T17:49:45.995Z,5.31
2022-11-30T17:56:47.916Z,5.31
2022-11-30T18:03:49.651Z,5.28
2022-11-30T18:10:51.337Z,5.21
2022-11-30T18:17:55.037Z,5.06
2022-11-30T18:24:56.610Z,4.98
2022-11-30T18:31:58.269Z,5.09
2022-11-30T18:38:59.886Z,5.03
2022-11-30T18:46:02.959Z,5.03
2022-11-30T18:53:04.612Z,4.86
2022-11-30T19:00:06.860Z,4.67
2022-11-30T19:07:08.475Z,4.55
2022-11-30T19:14:12.176Z,4.62
2022-11-30T19:21:15.340Z,4.76
2022-11-30T19:28:17.001Z,4.77
2022-11-30T19:35:18.614Z,4.82
2022-11-30T19:42:20.255Z,4.79
2022-11-30T19:49:21.888Z,4.82
2022-11-30T19:56:23.762Z,4.69
2022-11-30T20:03:25.564Z,4.73
2022-11-30T20:10:31.909Z,4.78
2022-11-30T20:17:33.744Z,4.68
2022-11-30T20:24:36.132Z,4.68
2022-11-30T20:31:43.566Z,4.48
2022-11-30T20:38:45.258Z,4.37
2022-11-30T20:45:46.836Z,4.59
2022-11-30T20:52:48.436Z,4.71
2022-11-30T20:59:50.026Z,4.71
2022-11-30T21:06:52.193Z,4.57
2022-11-30T21:13:54.066Z,4.51
2022-11-30T21:21:05.969Z,4.57
2022-11-30T21:28:07.559Z,4.58
2022-11-30T21:35:09.466Z,4.61
2022-11-30T21:42:11.065Z,4.46
2022-11-30T21:49:13.713Z,4.53
2022-11-30T21:56:17.376Z,4.53
2022-11-30T22:03:19.749Z,4.48
2022-11-30T22:10:21.531Z,4.54
2022-11-30T22:17:23.089Z,4.50
2022-11-30T22:24:24.703Z,4.47
2022-11-30T22:31:28.411Z,4.43
2022-11-30T22:38:30.061Z,4.38
2022-11-30T22:45:33.087Z,4.23
2022-11-30T22:53:01.505Z,4.09
2022-11-30T22:59:56.269Z,4.11
2022-11-30T23:06:57.828Z,4.06
2022-11-30T23:13:59.646Z,4.19
2022-11-30T23:21:41.081Z,4.14
2022-11-30T23:28:44.344Z,4.21
2022-11-30T23:35:45.930Z,4.36
2022-11-30T23:42:47.525Z,4.36
2022-11-30T23:49:49.796Z,4.34
2022-11-30T23:56:51.535Z,4.24
